El Paso, TX (88554)

11:17 PM MDT on August 27, 2016 (GMT -0600)
| | Change Station

Elev -9999 ft 0.00 °N, 0.00 °E | Updated

Mostly Cloudy
Mostly Cloudy
73 °F
Feels Like 73 °F
N
5
Wind Variable Wind from SSE
Gusts mph

Today
High -- | Low -- °F
--% Chance of Precip.
Yesterday
High -- | Low -- °F
Precip. -- in
Pressure 29.90 in
Visibility 10.0 miles
Clouds Few 7000 ft
Mostly Cloudy 11000 ft
Mostly Cloudy 14000 ft
Overcast 20000 ft
Dew Point 61 °F
Humidity 66%
Rainfall --
Snow Depth Not available.
6:38 AM 7:34 PM
Waning Crescent, 18% visible
METAR KELP 280451Z 36012KT 10SM FEW070 BKN110 BKN140 OVC200 21/18 A3010 RMK AO2 LTG DSNT SW RAB09E39 SLP124 FRQ LTGICCCCG DSNT NE-E SE-S AND SW CB DSNT NE-E SE-S AND SW SHRA DSNT NE-E SE-S AND SW P0010 T02060183
Pressure 29.90 in
Visibility 10.0 miles
Clouds Few 7000 ft
Mostly Cloudy 11000 ft
Mostly Cloudy 14000 ft
Overcast 20000 ft
Dew Point 61 °F
Humidity 66%
Rainfall --
Snow Depth Not available.
6:38 AM 7:34 PM
Waning Crescent, 18% visible
METAR KELP 280451Z 36012KT 10SM FEW070 BKN110 BKN140 OVC200 21/18 A3010 RMK AO2 LTG DSNT SW RAB09E39 SLP124 FRQ LTGICCCCG DSNT NE-E SE-S AND SW CB DSNT NE-E SE-S AND SW SHRA DSNT NE-E SE-S AND SW P0010 T02060183

10-Day Weather Forecast

Almanac

Astronomy

Aug. 27, 2016 Rise Set
Actual Time
Civil Twilight
Nautical Twilight
Astronomical Twilight
Moon
Length of Visible Light
Length of Day
Tomorrow will be .
, % of the Moon is Illuminated

Today's Extremes

State Highs State Lows

Community

WunderPhotos

Upload Photos

1,935,531 photos uploaded!

WunderBlog® & News

Nearby

Air Quality

  Air Quality AQ Index Pollutant
Not available.

Snow Depth

Station Depth Elevation

Earthquake Activity

City Distance Mag. Time & Date
Minimum magnitude displayed is 2.5.

Coastal Water Temperatures

Place Temperature

Stations

Nearby Weather Stations

Station Location Temp. Windchill Dew Point Humidity Wind Precip. Elev Updated Type
                   

Watches & Warnings

There are currently no watches in effect.